Archimede — IXZR — position and weather

sailwx.info

Track history (hours):
 
Tides and Currents Weather Stations Pressure Air Temp Water Temp Dewpoint Dewpoint Depression Visibility Wind Speed Wind Dir Waves Ship Positions

Archimede

Last reported at 2016-Aug-28 01:04 UTC. Time now 2016-Aug-28 05:10 UTC.
Position N 38°13' E 015°38'.

; draft 3.1 m.

Type: Passenger vessel. MMSI: 247054700.

Date/timePositionNaut miles runAvg speedWind from/ knotsBaromVisibWave heightAir tempDewpointWater temp
2016-Aug-28 01:04N 38°13' E 015°38'5 9.0
2016-Aug-28 00:33N 38°09' E 015°36'3 3.4
2016-Aug-27 23:33N 38°12' E 015°36'4 3.8
2016-Aug-27 22:33N 38°09' E 015°35'3 3.0
2016-Aug-27 21:33N 38°12' E 015°35'3 3.0
2016-Aug-27 20:34N 38°09' E 015°35'5 5.2
2016-Aug-27 19:33N 38°13' E 015°38'0 0.3
2016-Aug-27 18:33N 38°13' E 015°38'0 0.0
2016-Aug-27 17:33N 38°13' E 015°38'0 0.0
2016-Aug-27 16:33N 38°13' E 015°38'1 1.5
2016-Aug-27 15:33N 38°13' E 015°36'2 1.9
2016-Aug-27 14:33N 38°13' E 015°34'3 2.9
2016-Aug-27 13:33N 38°13' E 015°37'0 0.3
2016-Aug-27 12:33N 38°14' E 015°37'3 2.9
2016-Aug-27 11:33N 38°13' E 015°34'3 2.6
2016-Aug-27 10:33N 38°13' E 015°37'3 2.6
2016-Aug-27 09:33N 38°13' E 015°34'3 3.4
2016-Aug-27 08:33N 38°13' E 015°38'0 0.1
2016-Aug-27 07:33N 38°13' E 015°38'7 7.0
2016-Aug-27 06:33N 38°08' E 015°32'7 1.0
2016-Aug-26 23:31N 38°13' E 015°38'5 4.7
2016-Aug-26 22:34N 38°09' E 015°36'3 2.6
2016-Aug-26 21:33N 38°12' E 015°35'2 2.5
2016-Aug-26 20:33N 38°09' E 015°36'3 2.7
2016-Aug-26 19:34N 38°12' E 015°35'2 1.6
2016-Aug-26 18:33N 38°11' E 015°37'3 3.2
2016-Aug-26 17:33N 38°09' E 015°33'5 5.5
2016-Aug-26 16:33N 38°13' E 015°38'7 7.2
2016-Aug-26 15:33N 38°08' E 015°32'7 6.7
2016-Aug-26 14:33N 38°13' E 015°37'3 2.5
2016-Aug-26 13:33N 38°13' E 015°34'3 3.4
2016-Aug-26 12:33N 38°13' E 015°38'3 3.4
2016-Aug-26 11:33N 38°13' E 015°34'0 0.1
2016-Aug-26 10:33N 38°13' E 015°34'3 3.4
2016-Aug-26 09:33N 38°13' E 015°38'2 1.9
2016-Aug-26 08:33N 38°13' E 015°36'0 0.4
2016-Aug-26 07:33N 38°13' E 015°35'1 1.1
2016-Aug-26 06:34N 38°13' E 015°34'4 0.7
2016-Aug-26 00:34N 38°09' E 015°36'3 2.7
2016-Aug-25 23:33N 38°12' E 015°35'4 3.6
2016-Aug-25 22:33N 38°09' E 015°33'5 5.2
2016-Aug-25 21:34N 38°13' E 015°37'5 4.9
2016-Aug-25 20:34N 38°09' E 015°34'4 4.2
2016-Aug-25 19:34N 38°13' E 015°36'4 3.5
2016-Aug-25 18:33N 38°09' E 015°36'2 2.0
2016-Aug-25 17:33N 38°11' E 015°35'2 2.0
2016-Aug-25 16:33N 38°13' E 015°34'3 3.4
2016-Aug-25 15:33N 38°13' E 015°38'3 3.4
2016-Aug-25 14:33N 38°13' E 015°34'0 0.0
2016-Aug-25 13:34N 38°13' E 015°34'3 3.4
2016-Aug-25 12:34N 38°13' E 015°38'2 1.8
2016-Aug-25 11:33N 38°13' E 015°36'2 1.6
2016-Aug-25 10:33N 38°13' E 015°34'2 2.4
2016-Aug-25 09:34N 38°13' E 015°37'1 1.2
2016-Aug-25 08:34N 38°13' E 015°38'2 1.8
2016-Aug-25 07:34N 38°13' E 015°36'2 1.6
2016-Aug-25 06:34N 38°13' E 015°34'3 0.5
2016-Aug-24 23:33N 38°13' E 015°38'7 7.1
2016-Aug-24 22:33N 38°08' E 015°32'7 7.1
2016-Aug-24 21:33N 38°13' E 015°38'7 7.4
2016-Aug-24 20:33N 38°08' E 015°31'7 7.4
2016-Aug-24 19:33N 38°14' E 015°38'1 1.3
2016-Aug-24 18:34N 38°12' E 015°37'5 4.7
2016-Aug-24 17:33N 38°09' E 015°33'5 4.9
2016-Aug-24 16:33N 38°13' E 015°37'6 5.5
2016-Aug-24 15:33N 38°09' E 015°32'7 6.5
2016-Aug-24 14:33N 38°13' E 015°38'7 7.5
2016-Aug-24 13:33N 38°08' E 015°31'8 7.5
2016-Aug-24 12:33N 38°13' E 015°38'6 5.8
2016-Aug-24 11:33N 38°09' E 015°34'5 4.6
2016-Aug-24 10:34N 38°13' E 015°36'4 3.5
2016-Aug-24 09:33N 38°09' E 015°36'1 1.2
2016-Aug-24 08:33N 38°10' E 015°35'2 2.0
2016-Aug-24 07:33N 38°11' E 015°37'2 2.3
2016-Aug-24 06:33N 38°10' E 015°34'4 0.8
2016-Aug-24 01:11N 38°13' E 015°38'6 9.2
2016-Aug-24 00:34N 38°09' E 015°34'5 5.2
2016-Aug-23 23:33N 38°13' E 015°37'6 5.7
2016-Aug-23 22:34N 38°08' E 015°33'6 6.0
2016-Aug-23 21:33N 38°13' E 015°37'6 6.2
2016-Aug-23 20:33N 38°08' E 015°33'6 6.2
2016-Aug-23 19:34N 38°13' E 015°37'1 0.6
2016-Aug-23 18:33N 38°13' E 015°38'8 7.5
2016-Aug-23 17:33N 38°08' E 015°31'8 7.6
2016-Aug-23 16:33N 38°13' E 015°38'7 6.6
2016-Aug-23 15:34N 38°08' E 015°33'7 6.6
2016-Aug-23 14:34N 38°13' E 015°38'7 7.4
2016-Aug-23 13:33N 38°08' E 015°31'7 7.5
2016-Aug-23 12:34N 38°13' E 015°38'3 3.2
2016-Aug-23 11:34N 38°10' E 015°37'2 2.3
2016-Aug-23 10:34N 38°09' E 015°34'5 4.9
2016-Aug-23 09:34N 38°13' E 015°38'7 7.3
2016-Aug-23 08:33N 38°08' E 015°31'4 3.6
2016-Aug-23 07:34N 38°10' E 015°35'4 3.9
2016-Aug-23 06:33N 38°13' E 015°38'0 0.0
2016-Aug-23 05:34N 38°13' E 015°38'0 0.0
2016-Aug-22 18:16N 38°13' E 015°38'7 9.6
2016-Aug-22 17:32N 38°08' E 015°32'7 7.2
2016-Aug-22 16:34N 38°13' E 015°38'8 7.5
2016-Aug-22 15:34N 38°08' E 015°31'7 7.5
2016-Aug-22 14:34N 38°13' E 015°38'7 7.5
2016-Aug-22 13:34N 38°08' E 015°31'7 7.4
2016-Aug-22 12:34N 38°13' E 015°38'0 0.0
2016-Aug-21 18:34N 38°13' E 015°38'7 6.9
2016-Aug-21 17:33N 38°08' E 015°31'0 0.0
2016-Aug-21 16:33N 38°08' E 015°31'5 4.5
2016-Aug-21 15:34N 38°11' E 015°35'2 1.5
2016-Aug-21 14:34N 38°12' E 015°36'1 1.4
2016-Aug-21 13:34N 38°13' E 015°38'2 2.0
2016-Aug-21 12:33N 38°13' E 015°35'1 1.4
2016-Aug-21 11:33N 38°13' E 015°34'2 2.5
2016-Aug-21 10:34N 38°13' E 015°37'2 2.0
2016-Aug-21 09:33N 38°13' E 015°34'1 0.5
2016-Aug-21 08:33N 38°13' E 015°34'3 3.4
2016-Aug-21 07:33N 38°13' E 015°38'3 3.2
2016-Aug-21 06:33N 38°13' E 015°34'3 0.5
2016-Aug-21 00:22N 38°13' E 015°38'7 8.9
2016-Aug-20 23:33N 38°08' E 015°32'7 7.3
2016-Aug-20 22:33N 38°13' E 015°38'7 7.4
2016-Aug-20 21:33N 38°08' E 015°31'7 7.5
2016-Aug-20 20:33N 38°13' E 015°38'1 1.4
2016-Aug-20 19:33N 38°14' E 015°36'1 1.4
2016-Aug-20 18:33N 38°13' E 015°38'7 7.5
2016-Aug-20 17:33N 38°08' E 015°31'7 7.5
2016-Aug-20 16:33N 38°13' E 015°38'3 3.4
2016-Aug-20 15:33N 38°13' E 015°34'3 3.4
2016-Aug-20 14:33N 38°13' E 015°38'3 3.4
2016-Aug-20 13:33N 38°13' E 015°34'3 3.3
2016-Aug-20 12:33N 38°13' E 015°38'0 0.2
2016-Aug-20 11:33N 38°13' E 015°38'3 3.2
2016-Aug-20 10:33N 38°13' E 015°34'3 3.1
2016-Aug-20 09:33N 38°13' E 015°38'1 1.1
2016-Aug-20 08:33N 38°13' E 015°36'2 1.8
2016-Aug-20 07:26N 38°13' E 015°34'3 2.1
2016-Aug-20 06:09N 38°13' E 015°37'0 0.1
2016-Aug-20 00:33N 38°13' E 015°38'5 5.5
2016-Aug-19 23:33N 38°09' E 015°33'6 5.8
2016-Aug-19 22:33N 38°13' E 015°38'7 7.3
2016-Aug-19 21:32N 38°08' E 015°31'7 7.5
2016-Aug-19 20:33N 38°13' E 015°38'0 0.0
2016-Aug-19 19:33N 38°13' E 015°38'3 3.0
2016-Aug-19 18:33N 38°13' E 015°34'2 1.6
2016-Aug-19 17:33N 38°13' E 015°36'2 1.7
2016-Aug-19 16:33N 38°13' E 015°38'7 7.5
2016-Aug-19 15:33N 38°08' E 015°31'5 5.3
2016-Aug-19 14:34N 38°13' E 015°34'0 0.4
2016-Aug-19 13:33N 38°13' E 015°34'2 2.2
2016-Aug-19 12:33N 38°12' E 015°37'1 1.4
2016-Aug-19 11:34N 38°13' E 015°38'2 2.3
2016-Aug-19 10:34N 38°13' E 015°35'4 4.2
2016-Aug-19 09:34N 38°09' E 015°34'4 3.8
2016-Aug-19 08:33N 38°12' E 015°36'2 1.7
2016-Aug-19 07:33N 38°13' E 015°34'3 3.4
2016-Aug-19 06:34N 38°13' E 015°38'0 0.0
2016-Aug-19 01:09N 38°13' E 015°38'610.0
2016-Aug-19 00:33N 38°08' E 015°34'6 5.9
2016-Aug-18 23:33N 38°13' E 015°38'7 6.8
2016-Aug-18 22:33N 38°08' E 015°32'7 6.8
2016-Aug-18 21:33N 38°13' E 015°38'8 7.6
2016-Aug-18 20:34N 38°08' E 015°31'8 7.5
2016-Aug-18 19:33N 38°13' E 015°38'1 0.7
2016-Aug-18 18:33N 38°13' E 015°37'5 5.3
2016-Aug-18 17:33N 38°09' E 015°33'5 4.6
2016-Aug-18 16:33N 38°12' E 015°37'5 5.4
2016-Aug-18 15:33N 38°08' E 015°32'7 6.8
2016-Aug-18 14:33N 38°13' E 015°38'1 0.5
2016-Aug-18 13:33N 38°14' E 015°37'3 3.0
2016-Aug-18 12:33N 38°13' E 015°34'3 2.6
2016-Aug-18 11:33N 38°13' E 015°37'1 0.8
2016-Aug-18 10:33N 38°13' E 015°38'3 3.1
2016-Aug-18 09:33N 38°13' E 015°34'0 0.1
2016-Aug-18 08:34N 38°13' E 015°34'3 3.3
2016-Aug-18 07:34N 38°13' E 015°38'3 3.4
2016-Aug-18 06:34N 38°13' E 015°34'3 3.3
2016-Aug-18 05:34N 38°13' E 015°38'1 0.2
2016-Aug-18 01:33N 38°13' E 015°37'  
Track history (hours):
 
Tides and Currents Weather Stations Pressure Air Temp Water Temp Dewpoint Dewpoint Depression Visibility Wind Speed Wind Dir Waves Ship Positions

Archimede

Last reported at 2016-Aug-28 01:04 UTC. Time now 2016-Aug-28 05:10 UTC.
Position N 38°13' E 015°38'.

; draft 3.1 m.

Type: Passenger vessel. MMSI: 247054700.

Date/timePositionNaut miles runAvg speedWind from/ knotsBaromVisibWave heightAir tempDewpointWater temp
2016-Aug-28 01:04N 38°13' E 015°38'5 9.0
2016-Aug-28 00:33N 38°09' E 015°36'3 3.4
2016-Aug-27 23:33N 38°12' E 015°36'4 3.8
2016-Aug-27 22:33N 38°09' E 015°35'3 3.0
2016-Aug-27 21:33N 38°12' E 015°35'3 3.0
2016-Aug-27 20:34N 38°09' E 015°35'5 5.2
2016-Aug-27 19:33N 38°13' E 015°38'0 0.3
2016-Aug-27 18:33N 38°13' E 015°38'0 0.0
2016-Aug-27 17:33N 38°13' E 015°38'0 0.0
2016-Aug-27 16:33N 38°13' E 015°38'1 1.5
2016-Aug-27 15:33N 38°13' E 015°36'2 1.9
2016-Aug-27 14:33N 38°13' E 015°34'3 2.9
2016-Aug-27 13:33N 38°13' E 015°37'0 0.3
2016-Aug-27 12:33N 38°14' E 015°37'3 2.9
2016-Aug-27 11:33N 38°13' E 015°34'3 2.6
2016-Aug-27 10:33N 38°13' E 015°37'3 2.6
2016-Aug-27 09:33N 38°13' E 015°34'3 3.4
2016-Aug-27 08:33N 38°13' E 015°38'0 0.1
2016-Aug-27 07:33N 38°13' E 015°38'7 7.0
2016-Aug-27 06:33N 38°08' E 015°32'7 1.0
2016-Aug-26 23:31N 38°13' E 015°38'5 4.7
2016-Aug-26 22:34N 38°09' E 015°36'3 2.6
2016-Aug-26 21:33N 38°12' E 015°35'2 2.5
2016-Aug-26 20:33N 38°09' E 015°36'3 2.7
2016-Aug-26 19:34N 38°12' E 015°35'2 1.6
2016-Aug-26 18:33N 38°11' E 015°37'3 3.2
2016-Aug-26 17:33N 38°09' E 015°33'5 5.5
2016-Aug-26 16:33N 38°13' E 015°38'7 7.2
2016-Aug-26 15:33N 38°08' E 015°32'7 6.7
2016-Aug-26 14:33N 38°13' E 015°37'3 2.5
2016-Aug-26 13:33N 38°13' E 015°34'3 3.4
2016-Aug-26 12:33N 38°13' E 015°38'3 3.4
2016-Aug-26 11:33N 38°13' E 015°34'0 0.1
2016-Aug-26 10:33N 38°13' E 015°34'3 3.4
2016-Aug-26 09:33N 38°13' E 015°38'2 1.9
2016-Aug-26 08:33N 38°13' E 015°36'0 0.4
2016-Aug-26 07:33N 38°13' E 015°35'1 1.1
2016-Aug-26 06:34N 38°13' E 015°34'4 0.7
2016-Aug-26 00:34N 38°09' E 015°36'3 2.7
2016-Aug-25 23:33N 38°12' E 015°35'4 3.6
2016-Aug-25 22:33N 38°09' E 015°33'5 5.2
2016-Aug-25 21:34N 38°13' E 015°37'5 4.9
2016-Aug-25 20:34N 38°09' E 015°34'4 4.2
2016-Aug-25 19:34N 38°13' E 015°36'4 3.5
2016-Aug-25 18:33N 38°09' E 015°36'2 2.0
2016-Aug-25 17:33N 38°11' E 015°35'2 2.0
2016-Aug-25 16:33N 38°13' E 015°34'3 3.4
2016-Aug-25 15:33N 38°13' E 015°38'3 3.4
2016-Aug-25 14:33N 38°13' E 015°34'0 0.0
2016-Aug-25 13:34N 38°13' E 015°34'3 3.4
2016-Aug-25 12:34N 38°13' E 015°38'2 1.8
2016-Aug-25 11:33N 38°13' E 015°36'2 1.6
2016-Aug-25 10:33N 38°13' E 015°34'2 2.4
2016-Aug-25 09:34N 38°13' E 015°37'1 1.2
2016-Aug-25 08:34N 38°13' E 015°38'2 1.8
2016-Aug-25 07:34N 38°13' E 015°36'2 1.6
2016-Aug-25 06:34N 38°13' E 015°34'3 0.5
2016-Aug-24 23:33N 38°13' E 015°38'7 7.1
2016-Aug-24 22:33N 38°08' E 015°32'7 7.1
2016-Aug-24 21:33N 38°13' E 015°38'7 7.4
2016-Aug-24 20:33N 38°08' E 015°31'7 7.4
2016-Aug-24 19:33N 38°14' E 015°38'1 1.3
2016-Aug-24 18:34N 38°12' E 015°37'5 4.7
2016-Aug-24 17:33N 38°09' E 015°33'5 4.9
2016-Aug-24 16:33N 38°13' E 015°37'6 5.5
2016-Aug-24 15:33N 38°09' E 015°32'7 6.5
2016-Aug-24 14:33N 38°13' E 015°38'7 7.5
2016-Aug-24 13:33N 38°08' E 015°31'8 7.5
2016-Aug-24 12:33N 38°13' E 015°38'6 5.8
2016-Aug-24 11:33N 38°09' E 015°34'5 4.6
2016-Aug-24 10:34N 38°13' E 015°36'4 3.5
2016-Aug-24 09:33N 38°09' E 015°36'1 1.2
2016-Aug-24 08:33N 38°10' E 015°35'2 2.0
2016-Aug-24 07:33N 38°11' E 015°37'2 2.3
2016-Aug-24 06:33N 38°10' E 015°34'4 0.8
2016-Aug-24 01:11N 38°13' E 015°38'6 9.2
2016-Aug-24 00:34N 38°09' E 015°34'5 5.2
2016-Aug-23 23:33N 38°13' E 015°37'6 5.7
2016-Aug-23 22:34N 38°08' E 015°33'6 6.0
2016-Aug-23 21:33N 38°13' E 015°37'6 6.2
2016-Aug-23 20:33N 38°08' E 015°33'6 6.2
2016-Aug-23 19:34N 38°13' E 015°37'1 0.6
2016-Aug-23 18:33N 38°13' E 015°38'8 7.5
2016-Aug-23 17:33N 38°08' E 015°31'8 7.6
2016-Aug-23 16:33N 38°13' E 015°38'7 6.6
2016-Aug-23 15:34N 38°08' E 015°33'7 6.6
2016-Aug-23 14:34N 38°13' E 015°38'7 7.4
2016-Aug-23 13:33N 38°08' E 015°31'7 7.5
2016-Aug-23 12:34N 38°13' E 015°38'3 3.2
2016-Aug-23 11:34N 38°10' E 015°37'2 2.3
2016-Aug-23 10:34N 38°09' E 015°34'5 4.9
2016-Aug-23 09:34N 38°13' E 015°38'7 7.3
2016-Aug-23 08:33N 38°08' E 015°31'4 3.6
2016-Aug-23 07:34N 38°10' E 015°35'4 3.9
2016-Aug-23 06:33N 38°13' E 015°38'0 0.0
2016-Aug-23 05:34N 38°13' E 015°38'0 0.0
2016-Aug-22 18:16N 38°13' E 015°38'7 9.6
2016-Aug-22 17:32N 38°08' E 015°32'7 7.2
2016-Aug-22 16:34N 38°13' E 015°38'8 7.5
2016-Aug-22 15:34N 38°08' E 015°31'7 7.5
2016-Aug-22 14:34N 38°13' E 015°38'7 7.5
2016-Aug-22 13:34N 38°08' E 015°31'7 7.4
2016-Aug-22 12:34N 38°13' E 015°38'0 0.0
2016-Aug-21 18:34N 38°13' E 015°38'7 6.9
2016-Aug-21 17:33N 38°08' E 015°31'0 0.0
2016-Aug-21 16:33N 38°08' E 015°31'5 4.5
2016-Aug-21 15:34N 38°11' E 015°35'2 1.5
2016-Aug-21 14:34N 38°12' E 015°36'1 1.4
2016-Aug-21 13:34N 38°13' E 015°38'2 2.0
2016-Aug-21 12:33N 38°13' E 015°35'1 1.4
2016-Aug-21 11:33N 38°13' E 015°34'2 2.5
2016-Aug-21 10:34N 38°13' E 015°37'2 2.0
2016-Aug-21 09:33N 38°13' E 015°34'1 0.5
2016-Aug-21 08:33N 38°13' E 015°34'3 3.4
2016-Aug-21 07:33N 38°13' E 015°38'3 3.2
2016-Aug-21 06:33N 38°13' E 015°34'3 0.5
2016-Aug-21 00:22N 38°13' E 015°38'7 8.9
2016-Aug-20 23:33N 38°08' E 015°32'7 7.3
2016-Aug-20 22:33N 38°13' E 015°38'7 7.4
2016-Aug-20 21:33N 38°08' E 015°31'7 7.5
2016-Aug-20 20:33N 38°13' E 015°38'1 1.4
2016-Aug-20 19:33N 38°14' E 015°36'1 1.4
2016-Aug-20 18:33N 38°13' E 015°38'7 7.5
2016-Aug-20 17:33N 38°08' E 015°31'7 7.5
2016-Aug-20 16:33N 38°13' E 015°38'3 3.4
2016-Aug-20 15:33N 38°13' E 015°34'3 3.4
2016-Aug-20 14:33N 38°13' E 015°38'3 3.4
2016-Aug-20 13:33N 38°13' E 015°34'3 3.3
2016-Aug-20 12:33N 38°13' E 015°38'0 0.2
2016-Aug-20 11:33N 38°13' E 015°38'3 3.2
2016-Aug-20 10:33N 38°13' E 015°34'3 3.1
2016-Aug-20 09:33N 38°13' E 015°38'1 1.1
2016-Aug-20 08:33N 38°13' E 015°36'2 1.8
2016-Aug-20 07:26N 38°13' E 015°34'3 2.1
2016-Aug-20 06:09N 38°13' E 015°37'0 0.1
2016-Aug-20 00:33N 38°13' E 015°38'5 5.5
2016-Aug-19 23:33N 38°09' E 015°33'6 5.8
2016-Aug-19 22:33N 38°13' E 015°38'7 7.3
2016-Aug-19 21:32N 38°08' E 015°31'7 7.5
2016-Aug-19 20:33N 38°13' E 015°38'0 0.0
2016-Aug-19 19:33N 38°13' E 015°38'3 3.0
2016-Aug-19 18:33N 38°13' E 015°34'2 1.6
2016-Aug-19 17:33N 38°13' E 015°36'2 1.7
2016-Aug-19 16:33N 38°13' E 015°38'7 7.5
2016-Aug-19 15:33N 38°08' E 015°31'5 5.3
2016-Aug-19 14:34N 38°13' E 015°34'0 0.4
2016-Aug-19 13:33N 38°13' E 015°34'2 2.2
2016-Aug-19 12:33N 38°12' E 015°37'1 1.4
2016-Aug-19 11:34N 38°13' E 015°38'2 2.3
2016-Aug-19 10:34N 38°13' E 015°35'4 4.2
2016-Aug-19 09:34N 38°09' E 015°34'4 3.8
2016-Aug-19 08:33N 38°12' E 015°36'2 1.7
2016-Aug-19 07:33N 38°13' E 015°34'3 3.4
2016-Aug-19 06:34N 38°13' E 015°38'0 0.0
2016-Aug-19 01:09N 38°13' E 015°38'610.0
2016-Aug-19 00:33N 38°08' E 015°34'6 5.9
2016-Aug-18 23:33N 38°13' E 015°38'7 6.8
2016-Aug-18 22:33N 38°08' E 015°32'7 6.8
2016-Aug-18 21:33N 38°13' E 015°38'8 7.6
2016-Aug-18 20:34N 38°08' E 015°31'8 7.5
2016-Aug-18 19:33N 38°13' E 015°38'1 0.7
2016-Aug-18 18:33N 38°13' E 015°37'5 5.3
2016-Aug-18 17:33N 38°09' E 015°33'5 4.6
2016-Aug-18 16:33N 38°12' E 015°37'5 5.4
2016-Aug-18 15:33N 38°08' E 015°32'7 6.8
2016-Aug-18 14:33N 38°13' E 015°38'1 0.5
2016-Aug-18 13:33N 38°14' E 015°37'3 3.0
2016-Aug-18 12:33N 38°13' E 015°34'3 2.6
2016-Aug-18 11:33N 38°13' E 015°37'1 0.8
2016-Aug-18 10:33N 38°13' E 015°38'3 3.1
2016-Aug-18 09:33N 38°13' E 015°34'0 0.1
2016-Aug-18 08:34N 38°13' E 015°34'3 3.3
2016-Aug-18 07:34N 38°13' E 015°38'3 3.4
2016-Aug-18 06:34N 38°13' E 015°34'3 3.3
2016-Aug-18 05:34N 38°13' E 015°38'1 0.2
2016-Aug-18 01:33N 38°13' E 015°37'  

Dump ship's entire track history